Flight Track Log - Related Links

Times and Time Zones

All times are in EDT time to prevent confusion due to time zone crossing. See the SBE67 flight status page for this flight to view local times or setup timezone preferences in your user account.

Time Position Orientation Groundspeed Altitude Reporting Facility
EDT Latitude Longitude Course Direction KTS MPH feet Rate Location/Type
Thu 02:53:47 PM 48.1514 -103.7103 214° Southwest 229 264 4,500  Level Minneapolis Center
Thu 02:54:00 PM 48.0683 -103.5940 158° South  Level Estimated
Thu 02:54:49 PM 48.0819 -103.6772 162° South 247 284 7,500  Level Minneapolis Center
Thu 02:55:00 PM 47.9549 -103.5443 161° South  Level Estimated
Thu 02:55:51 PM 48.0061 -103.6433 163° South 266 306 10,000  Level Minneapolis Center
Thu 02:56:00 PM 47.8474 -103.4709 155° Southeast  Level FlightAware Approximate
Thu 02:56:57 PM 47.9111 -103.5919 160° South 291 335 13,900  Level Salt Lake Center
Thu 02:57:00 PM 47.7339 -103.4218 165° South  Level Estimated
Thu 02:57:59 PM 47.8203 -103.5481 162° South 321 369 15,600  Level Salt Lake Center
Thu 02:58:00 PM 47.6204 -103.3728 161° South  Level Estimated
Thu 02:59:01 PM 47.7231 -103.5017 162° South 349 402 17,700  Level Salt Lake Center
Thu 03:00:03 PM 47.6203 -103.4572 164° South 367 422 20,100 2,081 Climbing Salt Lake Center
Thu 03:01:05 PM 47.5167 -103.4081 162° South 378 435 22,000 1,645 Climbing Salt Lake Center
Thu 03:02:07 PM 47.4067 -103.3594 163° South 395 455 23,500 1,462 Climbing Salt Lake Center
Thu 03:03:04 PM 47.2908 -103.3072 163° South 421 484 24,900 1,412 Climbing Minneapolis Center
Thu 03:04:06 PM 47.1706 -103.2519 163° South 445 512 26,300 1,306 Climbing Minneapolis Center
Thu 03:05:08 PM 47.0464 -103.1981 164° South 459 528 27,600 1,645 Climbing Minneapolis Center
Thu 03:06:10 PM 46.8944 -103.1303 163° South 468 539 29,700 1,935 Climbing Minneapolis Center
Thu 03:07:12 PM 46.7725 -103.0758 163° South 466 536 31,600 1,742 Climbing Minneapolis Center
Thu 03:08:14 PM 46.6547 -103.0269 164° South 449 517 33,300 1,452 Climbing Minneapolis Center
Thu 03:09:16 PM 46.5428 -102.9789 164° South 430 495 34,600 829 Climbing Minneapolis Center
Thu 03:10:17 PM 46.4303 -102.9306 164° South 426 490 35,000 195 Climbing Minneapolis Center
Thu 03:11:19 PM 46.3142 -102.8792 163° South 429 494 35,000  Level Minneapolis Center
Thu 03:12:21 PM 46.1931 -102.8258 163° South 446 513 35,000  Level Minneapolis Center
Thu 03:13:23 PM 46.0439 -102.7650 164° South 461 531 35,000  Level Minneapolis Center
Thu 03:14:25 PM 45.9197 -102.7111 163° South 462 532 35,000  Level Minneapolis Center
Thu 03:15:27 PM 45.7883 -102.6589 165° South 467 537 35,000  Level Minneapolis Center
Thu 03:16:28 PM 45.6611 -102.6047 163° South 475 547 35,000  Level Minneapolis Center
Thu 03:17:30 PM 45.5336 -102.5508 164° South 476 548 35,000  Level Minneapolis Center
Thu 03:18:32 PM 45.4028 -102.4994 165° South 483 556 35,000  Level Minneapolis Center
Thu 03:19:34 PM 45.2747 -102.4450 163° South 485 558 35,000  Level Minneapolis Center
Thu 03:20:35 PM 45.1186 -102.3803 164° South 485 558 35,000  Level Minneapolis Center
Thu 03:21:37 PM 44.9883 -102.3278 164° South 485 558 35,000  Level Minneapolis Center
Thu 03:22:39 PM 44.8578 -102.2758 164° South 485 558 35,000  Level Minneapolis Center
Thu 03:23:09 PM 44.8044 -102.2536 164° South 487 560 35,000  Level Denver Center
Thu 03:24:11 PM 44.6478 -102.1900 164° South 488 562 35,000  Level Denver Center
Thu 03:25:13 PM 44.5169 -102.1378 164° South 488 562 35,000  Level Denver Center
Thu 03:26:15 PM 44.3864 -102.0872 165° South 488 562 35,000  Level Denver Center
Thu 03:27:17 PM 44.2553 -102.0342 164° South 489 563 35,000  Level Denver Center
Thu 03:28:19 PM 44.1231 -101.9803 164° South 492 566 35,000 145 Level Denver Center
Thu 03:29:21 PM 43.9928 -101.9278 164° South 493 567 35,300 780 Climbing Denver Center
Thu 03:30:22 PM 43.8439 -101.8681 164° South 479 551 36,600 829 Climbing Denver Center
Thu 03:31:24 PM 43.7231 -101.8231 165° South 458 527 37,000 194 Climbing Denver Center
Thu 03:32:26 PM 43.5978 -101.7731 164° South 465 535 37,000  Level Denver Center
Thu 03:33:28 PM 43.4711 -101.7250 165° South 471 542 37,000  Level Denver Center
Thu 03:34:30 PM 43.3428 -101.6753 164° South 476 548 37,000  Level Denver Center
Thu 03:35:32 PM 43.2133 -101.6253 164° South 480 552 37,000  Level Denver Center
Thu 03:36:34 PM 43.0578 -101.5658 164° South 484 557 37,000  Level Denver Center
Thu 03:37:36 PM 42.9253 -101.5150 164° South 483 556 37,000  Level Denver Center
Thu 03:38:38 PM 42.8022 -101.4686 165° South 482 555 37,000  Level Denver Center
Thu 03:39:40 PM 42.6781 -101.4228 165° South 482 555 37,000  Level Denver Center
Thu 03:40:42 PM 42.5336 -101.3681 164° South 482 555 37,000  Level Denver Center
Thu 03:41:44 PM 42.4108 -101.3225 165° South 479 551 37,000  Level Denver Center
Thu 03:42:46 PM 42.2667 -101.2672 164° South 480 552 37,000  Level Denver Center
Thu 03:43:48 PM 42.1433 -101.2222 165° South 480 552 37,000  Level Denver Center
Thu 03:44:50 PM 41.9986 -101.1686 165° South 481 554 37,000  Level Denver Center
Thu 03:45:51 PM 41.8753 -101.1242 165° South 480 552 37,000  Level Denver Center
Thu 03:46:53 PM 41.7300 -101.0839 168° South 480 552 37,000  Level Denver Center
Thu 03:47:55 PM 41.6053 -101.0722 176° South 472 543 37,000  Level Denver Center
Thu 03:48:57 PM 41.4583 -101.0592 176° South 472 543 37,000  Level Denver Center
Thu 03:49:59 PM 41.3339 -101.0492 177° South 471 542 37,000  Level Denver Center
Thu 03:51:01 PM 41.1869 -101.0372 176° South 472 543 37,000  Level Denver Center
Thu 03:52:03 PM 41.0614 -101.0272 177° South 472 543 37,000  Level Denver Center
Thu 03:53:05 PM 40.9164 -101.0075 174° South 473 544 37,000  Level Denver Center
Thu 03:54:06 PM 40.7950 -100.9581 163° South 478 550 37,000  Level Denver Center
Thu 03:55:08 PM 40.6542 -100.9022 163° South 478 550 37,000  Level Denver Center
Thu 03:56:10 PM 40.5322 -100.8578 165° South 478 550 37,000  Level Denver Center
Thu 03:57:12 PM 40.3886 -100.8022 164° South 480 552 37,000  Level Denver Center
Thu 03:58:14 PM 40.2653 -100.7567 164° South 483 556 37,000  Level Denver Center
Thu 03:59:16 PM 40.1208 -100.7039 164° South 483 556 37,000  Level Denver Center
Thu 04:00:18 PM 39.9967 -100.6567 164° South 483 556 37,000  Level Denver Center
Thu 04:01:20 PM 39.8717 -100.6106 164° South 485 558 37,000  Level Denver Center
Thu 04:02:22 PM 39.7269 -100.5586 165° South 485 558 37,000  Level Denver Center
Thu 04:03:24 PM 39.6031 -100.5131 164° South 484 557 37,000  Level Denver Center
Thu 04:04:26 PM 39.4581 -100.4581 164° South 485 558 37,000  Level Denver Center
Thu 04:05:28 PM 39.3328 -100.4153 165° South 485 558 37,000  Level Denver Center
Thu 04:06:30 PM 39.1875 -100.3611 164° South 485 558 37,000  Level Denver Center
Thu 04:07:32 PM 39.0619 -100.3158 164° South 488 562 37,000  Level Denver Center
Thu 04:08:34 PM 38.9169 -100.2647 165° South 489 563 37,000  Level Denver Center
Thu 04:09:33 PM 38.7897 -100.2178 164° South 487 560 37,000  Level Kansas City Center
Thu 04:10:35 PM 38.6642 -100.1728 164° South 488 562 37,000  Level Kansas City Center
Thu 04:11:37 PM 38.5164 -100.1225 165° South 488 562 37,000  Level Kansas City Center
Thu 04:12:39 PM 38.3897 -100.0767 164° South 489 563 37,000  Level Kansas City Center
Thu 04:13:41 PM 38.2411 -100.0258 165° South 491 565 37,000  Level Kansas City Center
Thu 04:14:43 PM 38.1133 -99.9806 164° South 492 566 37,000  Level Kansas City Center
Thu 04:15:45 PM 37.9650 -99.9283 164° South 492 566 37,000  Level Kansas City Center
Thu 04:16:47 PM 37.8367 -99.8839 165° South 493 567 37,000  Level Kansas City Center
Thu 04:17:49 PM 37.6875 -99.8328 165° South 493 567 37,000  Level Kansas City Center
Thu 04:18:51 PM 37.5589 -99.7883 165° South 494 568 37,000  Level Kansas City Center
Thu 04:19:54 PM 37.4308 -99.7431 164° South 495 570 37,000  Level Kansas City Center
Thu 04:20:56 PM 37.2797 -99.6922 165° South 497 572 37,000  Level Kansas City Center
Thu 04:21:58 PM 37.1508 -99.6492 165° South 498 573 37,000  Level Kansas City Center
Thu 04:23:00 PM 37.0133 -99.6017 165° South 500 575 37,000  Level Kansas City Center
Thu 04:24:02 PM 36.8786 -99.5561 165° South 501 577 37,000  Level Kansas City Center
Thu 04:25:04 PM 36.7156 -99.5025 165° South 501 577 37,000  Level Kansas City Center
Thu 04:26:06 PM 36.5797 -99.4558 165° South 502 578 37,000  Level Kansas City Center
Thu 04:27:08 PM 36.4450 -99.4100 165° South 503 579 37,000  Level Kansas City Center
Thu 04:28:10 PM 36.3100 -99.3658 165° South 503 579 37,000  Level Kansas City Center
Thu 04:29:12 PM 36.1800 -99.3219 165° South 503 579 37,000  Level Kansas City Center
Thu 04:30:14 PM 36.0183 -99.2686 165° South 503 579 37,000  Level Kansas City Center
Thu 04:31:16 PM 35.8842 -99.2228 165° South 503 579 37,000  Level Kansas City Center
Thu 04:32:22 PM 35.7497 -99.1800 166° South 505 581 37,000  Level Fort Worth Center
Thu 04:33:24 PM 35.5867 -99.1267 165° South 506 582 37,000  Level Fort Worth Center
Thu 04:34:26 PM 35.4533 -99.0672 160° South 510 587 37,000  Level Fort Worth Center
Thu 04:35:28 PM 35.3231 -98.9981 157° South 510 587 37,000  Level Fort Worth Center
Thu 04:36:30 PM 35.1908 -98.9358 159° South 510 587 37,000  Level Fort Worth Center
Thu 04:37:33 PM 35.0589 -98.8678 157° South 510 587 37,000  Level Fort Worth Center
Thu 04:38:35 PM 34.9261 -98.8025 158° South 511 588 37,000  Level Fort Worth Center
Thu 04:39:37 PM 34.7647 -98.7283 159° South 512 589 37,000  Level Fort Worth Center
Thu 04:40:39 PM 34.6314 -98.6631 158° South 515 593 37,000  Level Fort Worth Center
Thu 04:41:41 PM 34.4989 -98.5981 158° South 514 592 37,000  Level Fort Worth Center
Thu 04:42:43 PM 34.3669 -98.5342 158° South 513 590 37,000  Level Fort Worth Center
Thu 04:43:45 PM 34.2367 -98.4703 158° South 508 585 37,000  Level Fort Worth Center
Thu 04:44:47 PM 34.1031 -98.4061 158° South 502 578 37,000  Level Fort Worth Center
Thu 04:45:49 PM 33.9744 -98.3436 158° South 502 578 37,000  Level Fort Worth Center
Thu 04:46:52 PM 33.8206 -98.2706 158° South 499 574 37,000  Level Fort Worth Center
Thu 04:47:54 PM 33.6928 -98.2092 158° South 497 572 37,000  Level Fort Worth Center
Thu 04:48:56 PM 33.5564 -98.1444 158° South 497 572 37,000  Level Fort Worth Center
Thu 04:49:58 PM 33.4381 -98.0886 159° South 495 570 37,000  Level Fort Worth Center
Thu 04:51:00 PM 33.3117 -98.0286 158° South 490 564 37,000  Level Fort Worth Center
Thu 04:52:02 PM 33.1600 -97.9575 159° South 490 564 37,000  Level Fort Worth Center
Thu 04:53:04 PM 33.0347 -97.8994 159° South 490 564 37,000  Level Fort Worth Center
Thu 04:54:06 PM 32.9069 -97.8394 158° South 492 566 37,000  Level Fort Worth Center
Thu 04:55:09 PM 32.7803 -97.7800 158° South 492 566 37,000  Level Fort Worth Center
Thu 04:56:11 PM 32.6544 -97.7214 159° South 492 566 37,000 -290 Level Fort Worth Center
Thu 04:57:13 PM 32.5017 -97.6506 159° South 491 565 36,400 -1,113 Descending Fort Worth Center
Thu 04:58:15 PM 32.3761 -97.5939 159° South 489 563 34,700 -1,694 Descending Fort Worth Center
Thu 04:59:17 PM 32.2525 -97.5369 159° South 484 557 32,900 -1,790 Descending Fort Worth Center
Thu 05:00:19 PM 32.1308 -97.4808 159° South 477 549 31,000 -1,935 Descending Fort Worth Center
Thu 05:01:21 PM 32.0097 -97.4261 159° South 471 542 28,900 -2,032 Descending Fort Worth Center
Thu 05:02:23 PM 31.8814 -97.3661 158° South 466 536 26,800 -1,776 Descending Fort Worth Center
Thu 05:03:26 PM 31.7636 -97.3131 159° South 457 526 25,200 -1,488 Descending Fort Worth Center
Thu 05:04:28 PM 31.6250 -97.2761 167° South 421 484 23,700 -1,403 Descending Fort Worth Center
Thu 05:05:30 PM 31.5103 -97.2614 174° South 415 478 22,300 -823 Descending Fort Worth Center
Thu 05:06:32 PM 31.3956 -97.2394 171° South 416 479 22,000 -145 Descending Fort Worth Center
Thu 05:07:34 PM 31.2839 -97.2206 172° South 409 471 22,000 -629 Level Fort Worth Center
Thu 05:08:36 PM 31.1733 -97.2236 181° South 403 464 20,700 -1,790 Descending Fort Worth Center
Thu 05:09:38 PM 31.0725 -97.2625 198° South 388 447 18,300 -2,661 Descending Fort Worth Center
Thu 05:10:40 PM 30.9614 -97.3083 199° South 368 423 15,200 -2,274 Descending Fort Worth Center
Thu 05:11:42 PM 30.8708 -97.3403 197° South 360 414 13,600 -1,234 Descending Fort Worth Center
Thu 05:12:27 PM 30.8083 -97.3639 198° South 313 360 13,000 -444 Descending Houston Center
Thu 05:13:30 PM 30.7261 -97.3958 198° South 311 358 12,800 -768 Descending Houston Center
Thu 05:14:32 PM 30.6447 -97.4206 195° South 308 354 11,400 -1,258 Descending Houston Center
Thu 05:15:34 PM 30.5561 -97.4181 179° South 272 313 10,200 -1,452 Descending Houston Center
Thu 05:16:36 PM 30.4872 -97.4175 180° South 253 291 8,400 -1,452 Descending Houston Center
Thu 05:17:38 PM 30.4164 -97.4147 178° South 253 291 7,200 -1,403 Descending Houston Center
Thu 05:18:40 PM 30.3931 -97.4783 247° West 233 268 5,500 -1,403 Descending Houston Center
Thu 05:19:42 PM 30.3925 -97.5536 270° West 232 267 4,300 -968 Descending Houston Center
Thu 05:20:44 PM 30.3950 -97.6233 272° West 224 258 3,500 -545 Descending Houston Center
Thu 05:22:49 PM 30.3003 -97.6806 208° Southwest 204 235 2,600 -642 Descending Houston Center
Thu 05:23:51 PM 30.2597 -97.6792 178° South 173 199 1,500 -726 Descending Houston Center
Thu 05:24:53 PM 30.2214 -97.6800 181° South 150 173 1,100 -387 Descending Houston Center

Login

Don't have an account? Register now (free) for customized features, flight alerts, and more!